Time;durP1;ratioP1;P1;durP2;ratioP2;P2;SDS_P1;SDS_P2;PMS_P1;PMS_P2;Temp;Humidity;BMP_temperature;BMP_pressure;BME280_temperature;BME280_humidity;BME280_pressure;Samples;Min_cycle;Max_cycle;Signal;HPM_P1;HPM_P2
2021/12/12 00:01:19;;;;;;;13.10;3.90;;;;;;;14.02;100.00;98880.38;5091750;28;20251;-76
2021/12/12 00:03:50;;;;;;;22.50;3.65;;;;;;;13.79;100.00;98833.06;5090948;28;20590;-78
2021/12/12 00:06:21;;;;;;;9.80;3.15;;;;;;;13.99;100.00;98867.41;5091804;28;20683;-75
2021/12/12 00:08:52;;;;;;;14.15;3.30;;;;;;;14.02;100.00;98877.78;5072865;28;20185;-75
2021/12/12 00:11:23;;;;;;;11.00;3.78;;;;;;;14.02;100.00;98877.78;5076831;28;20194;-77
2021/12/12 00:13:54;;;;;;;11.98;3.13;;;;;;;13.87;100.00;98872.88;5072673;28;20691;-77
2021/12/12 00:16:22;;;;;;;11.82;3.85;;;;;;;13.58;100.00;98842.09;5079574;28;20194;-77
2021/12/12 00:18:49;;;;;;;13.18;3.70;;;;;;;13.71;100.00;98869.66;5073402;28;20194;-76
2021/12/12 00:21:21;;;;;;;11.52;3.05;;;;;;;13.78;100.00;98879.09;5071213;28;20240;-77
2021/12/12 00:23:48;;;;;;;21.25;4.45;;;;;;;13.74;100.00;98879.16;5071424;28;20215;-77
2021/12/12 00:26:15;;;;;;;13.35;3.75;;;;;;;13.72;100.00;98878.34;5072936;28;20203;-76
2021/12/12 00:28:42;;;;;;;15.27;5.10;;;;;;;13.70;100.00;98885.28;5087642;28;20703;-77
2021/12/12 00:31:12;;;;;;;9.77;3.58;;;;;;;13.72;100.00;98891.34;5079046;28;20587;-78
2021/12/12 00:33:46;;;;;;;15.73;3.85;;;;;;;13.71;100.00;98893.09;5082033;28;20272;-77
2021/12/12 00:36:16;;;;;;;17.75;3.72;;;;;;;13.59;100.00;98882.88;5083589;28;20219;-76
2021/12/12 00:38:44;;;;;;;9.35;3.60;;;;;;;13.68;100.00;98876.66;5075402;28;20260;-78
2021/12/12 00:41:13;;;;;;;11.15;3.67;;;;;;;13.73;100.00;98880.06;5074901;28;20195;-77
2021/12/12 00:43:43;;;;;;;12.00;3.03;;;;;;;13.74;100.00;98881.75;5080899;28;20661;-78
2021/12/12 00:46:13;;;;;;;11.18;3.78;;;;;;;13.10;100.00;98770.88;5091037;28;20187;-76
2021/12/12 00:48:43;;;;;;;14.02;3.78;;;;;;;13.60;100.00;98844.66;5074396;28;20222;-77
2021/12/12 00:51:13;;;;;;;13.98;3.53;;;;;;;13.88;100.00;98879.78;5092830;28;20198;-77
2021/12/12 00:53:42;;;;;;;11.35;3.45;;;;;;;13.96;100.00;98880.50;5089040;28;20198;-76
2021/12/12 00:56:09;;;;;;;15.10;3.88;;;;;;;13.91;100.00;98874.53;5076167;28;20190;-78
2021/12/12 00:58:36;;;;;;;19.42;4.70;;;;;;;13.96;100.00;98883.09;5089865;28;20201;-77
2021/12/12 01:01:07;;;;;;;11.10;5.60;;;;;;;13.96;100.00;98866.59;5074792;28;20195;-78
2021/12/12 01:03:38;;;;;;;14.05;3.95;;;;;;;13.97;100.00;98871.81;5079115;28;20186;-77
2021/12/12 01:06:09;;;;;;;14.88;4.22;;;;;;;13.90;100.00;98851.97;5094546;28;20202;-77
2021/12/12 01:08:36;;;;;;;8.68;2.95;;;;;;;13.96;100.00;98867.47;5076855;28;20579;-77
2021/12/12 01:11:07;;;;;;;12.30;4.82;;;;;;;14.01;100.00;98860.44;5075757;28;20191;-77
2021/12/12 01:13:35;;;;;;;10.10;2.92;;;;;;;13.99;100.00;98859.59;5080057;28;20206;-77
2021/12/12 01:16:06;;;;;;;9.43;3.60;;;;;;;14.04;100.00;98865.59;5082463;28;20191;-78
2021/12/12 01:18:38;;;;;;;7.60;2.85;;;;;;;13.81;100.00;98820.84;5087769;28;20288;-77
2021/12/12 01:21:12;;;;;;;10.95;3.67;;;;;;;14.07;100.00;98860.31;5083769;28;20679;-78
2021/12/12 01:23:43;;;;;;;6.03;2.80;;;;;;;14.06;100.00;98857.72;5075661;28;20217;-77
2021/12/12 01:26:11;;;;;;;11.13;3.63;;;;;;;14.04;100.00;98855.16;5075851;28;20191;-77
2021/12/12 01:28:43;;;;;;;11.82;3.45;;;;;;;14.08;100.00;98862.06;5076592;28;20219;-77
2021/12/12 01:31:13;;;;;;;7.90;3.60;;;;;;;14.04;100.00;98847.34;5087797;28;20222;-77
2021/12/12 01:33:41;;;;;;;7.55;3.10;;;;;;;13.88;100.00;98844.16;5088553;28;20202;-78
2021/12/12 01:36:21;;;;;;;8.40;3.08;;;;;;;13.65;100.00;98811.59;5074109;28;20230;-77
2021/12/12 01:38:52;;;;;;;11.25;3.63;;;;;;;13.73;100.00;98841.81;5090421;28;20194;-78
2021/12/12 01:41:23;;;;;;;10.55;4.35;;;;;;;13.72;100.00;98839.25;5073864;28;20207;-78
2021/12/12 01:43:54;;;;;;;12.05;3.72;;;;;;;13.69;100.00;98852.34;5081136;28;20195;-78
2021/12/12 01:46:25;;;;;;;8.48;3.50;;;;;;;13.63;100.00;98848.09;5091548;28;20201;-77
2021/12/12 01:48:56;;;;;;;8.75;4.38;;;;;;;13.61;100.00;98849.88;5075134;28;20259;-78
2021/12/12 01:51:26;;;;;;;8.68;4.13;;;;;;;13.57;100.00;98848.19;5074731;28;20195;-77
2021/12/12 01:53:56;;;;;;;14.75;3.60;;;;;;;13.55;100.00;98838.69;5073911;28;20195;-78
2021/12/12 01:56:28;;;;;;;13.30;4.20;;;;;;;13.51;100.00;98839.63;5075048;28;20195;-78
2021/12/12 01:58:59;;;;;;;13.85;4.55;;;;;;;13.38;100.00;98836.34;5090386;28;20676;-78
2021/12/12 02:01:30;;;;;;;14.23;4.13;;;;;;;13.29;100.00;98841.72;5089065;28;20198;-78
2021/12/12 02:04:01;;;;;;;12.60;4.75;;;;;;;13.29;100.00;98828.72;5073255;28;20195;-76
2021/12/12 02:06:31;;;;;;;14.88;6.55;;;;;;;13.10;100.00;98853.28;5084933;28;20198;-77
2021/12/12 02:08:58;;;;;;;15.07;4.50;;;;;;;12.76;100.00;98860.69;5085645;28;20190;-77
2021/12/12 02:11:29;;;;;;;16.52;4.32;;;;;;;12.52;100.00;98877.44;5078170;28;20187;-78
2021/12/12 02:13:59;;;;;;;9.18;4.72;;;;;;;11.76;100.00;98882.59;5073270;28;20708;-78
2021/12/12 02:16:28;;;;;;;14.10;5.65;;;;;;;11.48;100.00;98870.72;5075559;28;20630;-77
2021/12/12 02:18:58;;;;;;;13.77;6.53;;;;;;;11.10;100.00;98883.94;5087325;28;20256;-77
2021/12/12 02:21:32;;;;;;;13.13;7.57;;;;;;;10.97;100.00;98861.56;5089658;28;20233;-78
2021/12/12 02:35:22;;;;;;;19.07;9.13;;;;;;;10.81;100.00;98789.03;5092939;28;20734;-78
2021/12/12 02:37:51;;;;;;;16.67;10.13;;;;;;;10.84;100.00;98811.53;5092543;28;20744;-77
2021/12/12 02:40:23;;;;;;;11.50;7.53;;;;;;;10.79;100.00;98816.72;5083678;28;20190;-77
2021/12/12 02:42:50;;;;;;;13.60;8.00;;;;;;;10.81;100.00;98793.38;5092658;28;20259;-78
2021/12/12 02:45:19;;;;;;;13.40;7.47;;;;;;;10.50;100.00;98755.56;5079227;28;20579;-77
2021/12/12 02:47:54;;;;;;;12.13;6.40;;;;;;;10.99;100.00;98801.03;5084421;28;20828;-78
2021/12/12 02:50:23;;;;;;;9.40;5.60;;;;;;;11.05;100.00;98790.63;5083785;28;20190;-78
2021/12/12 02:52:52;;;;;;;11.70;5.27;;;;;;;11.12;100.00;98779.31;5072091;28;20746;-78
2021/12/12 02:55:25;;;;;;;9.27;5.50;;;;;;;11.11;100.00;98787.09;5073472;28;20223;-78
2021/12/12 02:57:53;;;;;;;8.00;4.93;;;;;;;11.25;100.00;98795.63;5081117;28;20632;-77
2021/12/12 03:00:23;;;;;;;7.97;5.27;;;;;;;11.12;100.00;98800.06;5081564;28;20195;-77
2021/12/12 03:02:57;;;;;;;7.13;4.40;;;;;;;11.24;100.00;98806.88;5072128;28;20194;-78
2021/12/12 03:05:27;;;;;;;5.40;4.07;;;;;;;11.37;100.00;98811.97;5075109;28;20590;-78
2021/12/12 03:07:54;;;;;;;8.23;4.67;;;;;;;11.37;100.00;98817.16;5092085;28;20229;-77
2021/12/12 03:10:26;;;;;;;6.27;4.27;;;;;;;11.43;100.00;98805.84;5090588;28;20190;-77
2021/12/12 03:12:53;;;;;;;8.47;4.70;;;;;;;11.47;100.00;98830.03;5079501;28;20199;-77
2021/12/12 03:15:23;;;;;;;5.63;4.20;;;;;;;11.41;100.00;98837.00;5072015;28;20214;-77
2021/12/12 03:17:53;;;;;;;7.20;4.70;;;;;;;11.44;100.00;98837.00;5072801;28;20580;-76
2021/12/12 03:20:25;;;;;;;12.05;5.82;;;;;;;11.43;100.00;98837.88;5079547;28;20220;-77
2021/12/12 03:22:54;;;;;;;6.40;4.55;;;;;;;11.40;100.00;98837.03;5075391;28;20192;-77
2021/12/12 03:25:23;;;;;;;6.40;4.20;;;;;;;11.47;100.00;98856.00;5082592;28;20199;-77
2021/12/12 03:27:51;;;;;;;6.40;3.87;;;;;;;11.23;100.00;98850.16;5085650;28;20190;-76
2021/12/12 03:30:18;;;;;;;9.00;5.03;;;;;;;10.98;100.00;98846.00;5084153;28;20198;-77
2021/12/12 03:32:44;;;;;;;6.57;4.50;;;;;;;10.90;100.00;98851.22;5071536;28;20708;-78
2021/12/12 03:35:12;;;;;;;11.17;6.30;;;;;;;10.67;100.00;98836.66;5071843;28;20253;-77
2021/12/12 03:37:40;;;;;;;8.10;5.87;;;;;;;10.51;100.00;98838.50;5072078;28;20206;-77
2021/12/12 03:40:14;;;;;;;10.33;7.37;;;;;;;10.48;100.00;98858.38;5078448;28;20195;-76
2021/12/12 03:42:45;;;;;;;8.33;7.00;;;;;;;10.32;100.00;98866.19;5091639;28;20197;-78
2021/12/12 03:45:13;;;;;;;11.27;5.57;;;;;;;9.92;100.00;98872.31;5074891;28;20210;-78
2021/12/12 03:47:43;;;;;;;5.80;5.00;;;;;;;9.62;100.00;98862.88;5088925;28;20198;-78
2021/12/12 03:50:13;;;;;;;10.50;5.00;;;;;;;9.21;100.00;98851.66;5085615;28;20199;-79
2021/12/12 03:52:41;;;;;;;10.03;5.50;;;;;;;8.97;100.00;98878.34;5080560;28;20745;-78
2021/12/12 03:55:10;;;;;;;11.17;7.97;;;;;;;8.72;100.00;98897.25;5079862;28;20300;-76
2021/12/12 03:57:37;;;;;;;13.93;7.83;;;;;;;8.60;100.00;98908.38;5091247;28;20282;-77
2021/12/12 04:00:11;;;;;;;11.17;5.20;;;;;;;8.41;100.00;98902.31;5084129;28;20623;-75
2021/12/12 04:02:38;;;;;;;7.77;5.77;;;;;;;8.17;100.00;98922.78;5075149;28;20614;-76
2021/12/12 04:05:06;;;;;;;7.33;5.50;;;;;;;8.07;100.00;98938.19;5091422;28;20607;-76
2021/12/12 04:07:34;;;;;;;10.10;6.30;;;;;;;7.94;100.00;98919.19;5091606;28;20190;-77
2021/12/12 04:10:01;;;;;;;17.00;7.30;;;;;;;7.83;100.00;98920.84;5089196;28;20195;-77
2021/12/12 04:12:28;;;;;;;15.23;9.07;;;;;;;7.94;100.00;98945.00;5090621;28;20190;-76
2021/12/12 04:14:57;;;;;;;11.77;7.37;;;;;;;7.95;100.00;98959.66;5086368;28;20655;-78
2021/12/12 04:17:28;;;;;;;15.13;7.30;;;;;;;7.99;100.00;98956.22;5072672;28;20198;-78
2021/12/12 04:19:58;;;;;;;13.07;7.47;;;;;;;7.96;100.00;98966.53;5079283;28;20215;-78
2021/12/12 04:22:25;;;;;;;18.93;9.53;;;;;;;7.96;100.00;98980.28;5081748;28;20194;-75
2021/12/12 04:24:55;;;;;;;13.07;7.47;;;;;;;8.16;100.00;98977.00;5073586;28;20189;-78
2021/12/12 04:27:23;;;;;;;13.60;7.23;;;;;;;8.22;100.00;98992.53;5071305;28;20763;-78
2021/12/12 04:29:53;;;;;;;21.70;14.53;;;;;;;8.13;100.00;99003.66;5073463;28;20213;-77
2021/12/12 04:32:23;;;;;;;14.27;7.07;;;;;;;8.19;100.00;99018.31;5085244;28;20187;-77
2021/12/12 04:34:54;;;;;;;17.83;10.77;;;;;;;8.20;100.00;99010.59;5071344;28;20194;-77
2021/12/12 04:37:21;;;;;;;20.63;10.53;;;;;;;8.28;100.00;99008.94;5071142;28;20661;-81
2021/12/12 04:39:52;;;;;;;29.40;16.30;;;;;;;8.49;100.00;99035.78;5072507;28;20294;-78
2021/12/12 04:42:22;;;;;;;19.00;10.00;;;;;;;8.35;100.00;99041.69;5086068;28;20578;-78
2021/12/12 04:44:51;;;;;;;10.97;7.03;;;;;;;8.41;100.00;99043.47;5091431;28;20194;-77
2021/12/12 04:50:34;;;;;;;12.70;7.50;;;;;;;7.79;100.00;99032.59;5072629;28;20260;-78
2021/12/12 04:53:07;;;;;;;25.20;14.60;;;;;;;8.00;100.00;99066.34;5082165;28;20668;-79
2021/12/12 04:55:39;;;;;;;13.97;8.43;;;;;;;7.90;100.00;99064.53;5078762;28;20226;-79
2021/12/12 04:58:16;;;;;;;20.00;12.93;;;;;;;7.86;100.00;99052.47;5071292;28;20206;-78
2021/12/12 05:00:47;;;;;;;22.93;14.77;;;;;;;7.86;100.00;99055.91;5080601;28;20198;-75
2021/12/12 05:03:19;;;;;;;83.93;50.50;;;;;;;7.64;100.00;99042.78;5091156;28;20198;-78
2021/12/12 05:05:57;;;;;;;36.17;21.27;;;;;;;7.70;100.00;99068.66;5090897;28;20209;-77
2021/12/12 05:08:33;;;;;;;15.87;9.93;;;;;;;7.76;100.00;99072.16;5089899;28;20224;-78
2021/12/12 05:11:03;;;;;;;23.87;13.13;;;;;;;7.76;100.00;99074.75;5082944;28;20198;-77
2021/12/12 05:13:34;;;;;;;18.63;11.93;;;;;;;7.83;100.00;99101.47;5072643;28;20256;-77
2021/12/12 05:16:07;;;;;;;18.37;13.77;;;;;;;7.40;100.00;99052.00;5084249;28;20221;-77
2021/12/12 05:18:41;;;;;;;20.50;10.30;;;;;;;7.64;100.00;99112.41;5093206;28;20217;-79
2021/12/12 05:21:13;;;;;;;18.87;11.40;;;;;;;7.64;100.00;99112.41;5082299;28;20218;-78
2021/12/12 05:23:43;;;;;;;15.53;10.13;;;;;;;7.52;100.00;99104.56;5090920;28;20197;-78
2021/12/12 05:26:14;;;;;;;20.07;12.43;;;;;;;7.48;100.00;99108.81;5080777;28;20590;-77
2021/12/12 05:28:47;;;;;;;19.40;12.43;;;;;;;7.14;100.00;99079.19;5094162;28;20240;-77
2021/12/12 05:31:14;;;;;;;63.07;33.80;;;;;;;7.30;100.00;99109.47;5081925;28;20195;-78
2021/12/12 05:33:42;;;;;;;74.27;38.60;;;;;;;7.50;100.00;99117.44;5094323;28;20201;-77
2021/12/12 05:36:12;;;;;;;55.33;29.40;;;;;;;7.51;100.00;99120.88;5093827;28;20230;-77
2021/12/12 05:38:40;;;;;;;53.37;27.87;;;;;;;7.51;100.00;99128.63;5092778;28;20197;-77
2021/12/12 05:41:08;;;;;;;33.97;22.33;;;;;;;7.47;100.00;99144.06;5082295;28;20191;-78
2021/12/12 05:43:36;;;;;;;32.47;19.83;;;;;;;7.47;100.00;99153.50;5073812;28;20203;-78
2021/12/12 05:46:04;;;;;;;40.43;21.37;;;;;;;7.43;100.00;99157.75;5074211;28;20588;-78
2021/12/12 05:48:32;;;;;;;31.60;19.50;;;;;;;7.53;100.00;99173.38;5091471;28;20198;-77
2021/12/12 05:51:01;;;;;;;34.80;19.87;;;;;;;7.66;100.00;99181.25;5083230;28;20592;-78
2021/12/12 05:53:30;;;;;;;23.93;14.53;;;;;;;7.62;100.00;99169.16;5073478;28;20662;-78
2021/12/12 05:55:57;;;;;;;20.63;10.60;;;;;;;7.72;100.00;99198.50;5085388;28;20221;-77
2021/12/12 05:58:25;;;;;;;27.87;15.43;;;;;;;7.58;100.00;99190.63;5074564;28;20746;-77
2021/12/12 06:00:55;;;;;;;33.83;19.00;;;;;;;7.70;100.00;99207.97;5083186;28;20196;-77
2021/12/12 06:03:25;;;;;;;26.50;14.10;;;;;;;7.63;100.00;99212.19;5093692;28;20247;-76
2021/12/12 06:05:55;;;;;;;26.57;17.13;;;;;;;7.61;100.00;99210.41;5093813;28;20198;-76
2021/12/12 06:08:23;;;;;;;14.80;9.90;;;;;;;7.18;100.00;99135.09;5093444;28;20197;-76
2021/12/12 06:10:52;;;;;;;17.83;10.87;;;;;;;7.39;100.00;99166.28;5082196;28;20709;-77
2021/12/12 06:13:21;;;;;;;17.13;10.33;;;;;;;7.62;100.00;99199.25;5074747;28;20187;-78
2021/12/12 06:15:53;;;;;;;13.50;9.00;;;;;;;7.49;100.00;99219.72;5079320;28;20594;-78
2021/12/12 06:18:22;;;;;;;15.53;9.47;;;;;;;7.39;100.00;99243.66;5091948;28;20186;-76
2021/12/12 06:20:49;;;;;;;17.87;12.17;;;;;;;7.15;100.00;99263.06;5083695;28;20218;-77
2021/12/12 06:23:17;;;;;;;26.90;14.30;;;;;;;7.30;100.00;99263.28;5092768;28;20194;-78
2021/12/12 06:25:45;;;;;;;41.97;24.13;;;;;;;7.14;100.00;99238.97;5093062;28;20197;-77
2021/12/12 06:28:16;;;;;;;48.57;32.83;;;;;;;7.38;100.00;99274.59;5079864;28;20195;-73
2021/12/12 06:30:43;;;;;;;34.53;20.47;;;;;;;7.63;100.00;99276.69;5080285;28;20205;-76
2021/12/12 06:33:11;;;;;;;26.10;17.10;;;;;;;7.67;100.00;99288.75;5093275;28;20193;-76
2021/12/12 06:35:39;;;;;;;19.27;11.83;;;;;;;7.61;100.00;99280.06;5080139;28;20280;-75
2021/12/12 06:38:08;;;;;;;15.00;8.73;;;;;;;7.82;100.00;99311.31;5071333;28;20877;-76
2021/12/12 06:40:35;;;;;;;12.30;8.30;;;;;;;8.01;100.00;99313.28;5089415;28;20668;-76
2021/12/12 06:43:06;;;;;;;18.73;11.37;;;;;;;8.14;100.00;99332.38;5092868;28;20197;-77
2021/12/12 06:45:36;;;;;;;17.13;10.50;;;;;;;8.16;100.00;99339.31;5083793;28;20198;-77
2021/12/12 06:48:05;;;;;;;15.20;9.57;;;;;;;8.12;100.00;99342.69;5072275;28;20226;-77
2021/12/12 06:50:34;;;;;;;17.37;10.07;;;;;;;7.95;100.00;99346.78;5084858;28;20198;-77
2021/12/12 06:53:02;;;;;;;14.90;10.10;;;;;;;7.06;100.00;99258.66;5092309;28;20672;-78
2021/12/12 06:55:31;;;;;;;18.03;10.40;;;;;;;7.59;100.00;99356.56;5092163;28;20273;-77
2021/12/12 06:57:58;;;;;;;25.80;13.10;;;;;;;7.46;100.00;99358.06;5076164;28;20199;-76
2021/12/12 07:00:29;;;;;;;24.37;14.60;;;;;;;7.47;100.00;99360.69;5086751;28;20198;-77
2021/12/12 07:02:58;;;;;;;29.97;17.53;;;;;;;7.35;100.00;99363.06;5079903;28;20202;-77
2021/12/12 07:05:28;;;;;;;18.63;12.20;;;;;;;7.42;100.00;99367.47;5090296;28;20190;-79
2021/12/12 07:07:57;;;;;;;20.87;14.70;;;;;;;6.71;100.00;99254.59;5074665;28;20256;-76
2021/12/12 07:10:29;;;;;;;28.47;17.03;;;;;;;7.49;100.00;99377.03;5072669;28;20195;-77
2021/12/12 07:12:57;;;;;;;24.00;13.53;;;;;;;7.62;100.00;99372.09;5078598;28;20190;-76
2021/12/12 07:15:27;;;;;;;56.13;31.10;;;;;;;7.59;100.00;99377.19;5091688;28;20197;-75
2021/12/12 07:17:55;;;;;;;22.30;12.37;;;;;;;7.35;100.00;99352.75;5075015;28;20197;-75
2021/12/12 07:20:24;;;;;;;12.37;8.87;;;;;;;7.66;100.00;99407.41;5080329;28;20234;-75
2021/12/12 07:22:51;;;;;;;16.53;11.07;;;;;;;7.39;100.00;99333.91;5090900;28;20210;-76
2021/12/12 07:25:20;;;;;;;7.97;6.03;;;;;;;7.96;100.00;99428.50;5092001;28;20567;-75
2021/12/12 07:27:47;;;;;;;10.00;7.27;;;;;;;7.90;100.00;99434.44;5090174;28;20190;-75
2021/12/12 07:30:14;;;;;;;8.93;5.40;;;;;;;7.94;100.00;99437.94;5071711;28;20206;-75
2021/12/12 07:32:41;;;;;;;8.37;5.87;;;;;;;7.87;100.00;99436.13;5072039;28;20198;-76
2021/12/12 07:35:09;;;;;;;10.07;6.30;;;;;;;7.94;100.00;99440.53;5084861;28;20218;-74
2021/12/12 07:37:38;;;;;;;8.07;6.20;;;;;;;7.91;100.00;99438.78;5091011;28;20249;-75
2021/12/12 07:40:07;;;;;;;10.23;5.57;;;;;;;7.90;100.00;99434.44;5091269;28;20202;-74
2021/12/12 07:42:34;;;;;;;6.27;5.23;;;;;;;8.03;100.00;99444.94;5091862;28;20584;-74
2021/12/12 07:45:02;;;;;;;14.40;8.73;;;;;;;8.57;100.00;99440.56;5086027;28;20202;-77
2021/12/12 07:47:31;;;;;;;10.70;7.57;;;;;;;8.31;100.00;99453.13;5089070;28;20676;-74
2021/12/12 07:49:58;;;;;;;6.07;5.43;;;;;;;8.19;100.00;99450.38;5090731;28;20194;-73
2021/12/12 07:52:28;;;;;;;9.70;6.17;;;;;;;8.18;100.00;99458.09;5083222;28;20190;-75
2021/12/12 07:54:58;;;;;;;9.53;4.90;;;;;;;8.16;100.00;99458.06;5091772;28;20194;-75
2021/12/12 07:57:28;;;;;;;7.60;5.70;;;;;;;8.10;100.00;99462.28;5086373;28;20219;-75
2021/12/12 07:59:57;;;;;;;8.27;5.80;;;;;;;8.17;100.00;99464.13;5071349;28;20198;-75
2021/12/12 08:02:25;;;;;;;6.70;4.43;;;;;;;8.15;100.00;99486.44;5084040;28;20200;-74
2021/12/12 08:04:53;;;;;;;13.93;9.40;;;;;;;8.11;100.00;99477.78;5091402;28;20213;-74
2021/12/12 08:07:22;;;;;;;10.50;6.93;;;;;;;8.14;100.00;99485.56;5090650;28;20683;-75
2021/12/12 08:09:51;;;;;;;13.00;8.40;;;;;;;8.02;100.00;99482.81;5091235;28;20198;-74
2021/12/12 08:12:23;;;;;;;10.57;7.10;;;;;;;7.96;100.00;99472.38;5082158;28;20226;-73
2021/12/12 08:14:50;;;;;;;12.63;8.73;;;;;;;7.91;100.00;99486.94;5080622;28;20277;-73
2021/12/12 08:17:20;;;;;;;18.37;12.90;;;;;;;7.81;100.00;99491.06;5090977;28;20266;-72
2021/12/12 08:19:48;;;;;;;6.47;5.40;;;;;;;7.78;100.00;99469.50;5090194;28;20708;-74
2021/12/12 08:22:15;;;;;;;6.33;5.20;;;;;;;7.92;100.00;99514.47;5085184;28;20198;-72
2021/12/12 08:24:43;;;;;;;7.20;5.90;;;;;;;7.89;100.00;99511.84;5072983;28;20195;-73
2021/12/12 08:27:12;;;;;;;7.87;5.97;;;;;;;7.97;100.00;99515.44;5070727;28;20194;-75
2021/12/12 08:29:41;;;;;;;6.50;4.97;;;;;;;7.97;100.00;99534.38;5070998;28;20693;-73
2021/12/12 08:32:11;;;;;;;7.93;6.50;;;;;;;8.07;100.00;99532.78;5071554;28;20251;-74
2021/12/12 08:34:38;;;;;;;10.43;6.87;;;;;;;7.96;100.00;99513.69;5090788;28;20251;-73
2021/12/12 08:37:06;;;;;;;8.70;5.13;;;;;;;8.27;100.00;99544.31;5090288;28;20256;-76
2021/12/12 08:39:34;;;;;;;9.50;7.17;;;;;;;8.66;100.00;99553.53;5091066;28;20190;-73
2021/12/12 08:42:03;;;;;;;6.27;4.93;;;;;;;8.45;100.00;99546.34;5089968;28;20190;-76
2021/12/12 08:44:31;;;;;;;4.80;4.33;;;;;;;8.53;100.00;99567.09;5072118;28;20724;-74
2021/12/12 08:47:01;;;;;;;6.70;4.90;;;;;;;8.47;100.00;99570.47;5091475;28;20197;-73
2021/12/12 08:49:31;;;;;;;4.13;3.80;;;;;;;8.50;100.00;99572.22;5094067;28;20213;-74
2021/12/12 08:52:05;;;;;;;7.43;6.33;;;;;;;8.59;100.00;99590.47;5094111;28;20198;-77
2021/12/12 08:54:36;;;;;;;7.73;5.83;;;;;;;8.64;100.00;99581.03;5074928;28;20190;-75
2021/12/12 08:57:14;;;;;;;7.33;4.87;;;;;;;8.57;100.00;99577.50;5074147;28;20218;-75
2021/12/12 08:59:46;;;;;;;9.17;4.70;;;;;;;8.58;100.00;99581.84;5074744;28;20222;-75
2021/12/12 09:02:18;;;;;;;10.97;6.30;;;;;;;8.76;100.00;99601.91;5074336;28;20199;-75
2021/12/12 09:04:49;;;;;;;8.70;5.20;;;;;;;8.73;100.00;99601.88;5074884;28;20213;-78
2021/12/12 09:07:20;;;;;;;12.40;7.03;;;;;;;8.97;100.00;99571.19;5074346;28;20194;-75
2021/12/12 09:09:51;;;;;;;5.93;4.30;;;;;;;9.06;100.00;99555.75;5079642;28;20198;-75
2021/12/12 09:12:22;;;;;;;16.60;7.73;;;;;;;9.47;100.00;99633.91;5092864;28;20190;-75
2021/12/12 09:14:53;;;;;;;9.67;5.40;;;;;;;9.64;100.00;99634.94;5094897;28;20640;-75
2021/12/12 09:17:27;;;;;;;9.90;5.60;;;;;;;9.44;100.00;99650.25;5093848;28;20226;-73
2021/12/12 09:19:57;;;;;;;6.60;4.27;;;;;;;9.23;100.00;99657.75;5080744;28;20293;-73
2021/12/12 09:22:33;;;;;;;7.00;4.10;;;;;;;9.50;100.00;99639.09;5080942;28;20210;-73
2021/12/12 09:25:05;;;;;;;6.63;3.70;;;;;;;9.66;100.00;99653.09;5085806;28;20587;-76
2021/12/12 09:27:35;;;;;;;3.15;2.88;;;;;;;9.37;100.00;99656.22;5086908;28;20496;-75
2021/12/12 09:30:07;;;;;;;5.30;3.20;;;;;;;9.33;100.00;99651.84;5076314;28;20568;-73
2021/12/12 09:32:39;;;;;;;4.37;3.20;;;;;;;9.19;100.00;99653.38;5074037;28;20673;-73
2021/12/12 09:35:10;;;;;;;4.60;3.23;;;;;;;9.07;100.00;99613.53;5078715;28;20230;-74
2021/12/12 09:37:40;;;;;;;3.80;3.33;;;;;;;9.13;100.00;99655.84;5079405;28;20221;-73
2021/12/12 09:40:23;;;;;;;13.10;8.13;;;;;;;9.40;100.00;99669.19;5093554;28;20202;-74
2021/12/12 09:43:03;;;;;;;10.80;6.30;;;;;;;9.40;100.00;99676.06;5094153;28;20194;-73
2021/12/12 09:45:40;;;;;;;36.60;14.53;;;;;;;9.33;100.00;99680.28;5077080;28;20220;-74
2021/12/12 09:51:26;;;;;;;37.27;16.67;;;;;;;9.40;100.00;99676.94;5044753;28;20277;-73
2021/12/12 09:54:07;;;;;;;13.30;6.60;;;;;;;9.23;100.00;99681.03;5073484;28;20195;-75
2021/12/12 09:56:41;;;;;;;15.03;7.47;;;;;;;9.26;100.00;99662.94;5083764;28;20213;-75
2021/12/12 09:59:13;;;;;;;17.97;7.97;;;;;;;9.38;100.00;99682.94;5089722;28;20210;-74
2021/12/12 10:01:48;;;;;;;22.47;9.30;;;;;;;9.42;100.00;99698.50;5073059;28;20669;-73
2021/12/12 10:04:26;;;;;;;24.30;10.83;;;;;;;9.71;100.00;99683.34;5087008;28;20198;-73
2021/12/12 10:07:06;;;;;;;21.83;10.10;;;;;;;9.41;100.00;99695.91;5073289;28;20207;-74
2021/12/12 10:09:38;;;;;;;11.27;5.50;;;;;;;9.45;100.00;99695.13;5087436;28;20198;-74
2021/12/12 10:12:12;;;;;;;12.47;6.20;;;;;;;9.28;100.00;99704.34;5082316;28;20197;-75
2021/12/12 10:14:45;;;;;;;12.37;5.67;;;;;;;9.36;100.00;99711.38;5074270;28;20202;-74
2021/12/12 10:17:17;;;;;;;14.80;6.40;;;;;;;9.18;100.00;99658.50;5076917;28;20229;-74
2021/12/12 10:19:55;;;;;;;7.97;4.90;;;;;;;9.46;100.00;99715.81;5085041;28;20225;-74
2021/12/12 10:22:32;;;;;;;5.90;3.20;;;;;;;9.23;100.00;99688.78;5082582;28;20195;-74
2021/12/12 10:25:04;;;;;;;9.30;5.53;;;;;;;9.52;100.00;99735.75;5072760;28;20665;-77
2021/12/12 10:27:35;;;;;;;8.23;3.70;;;;;;;9.34;100.00;99718.25;5072010;28;20681;-73
2021/12/12 10:30:08;;;;;;;11.30;5.33;;;;;;;9.71;100.00;99744.59;5072707;28;20202;-74
2021/12/12 10:32:41;;;;;;;10.73;5.40;;;;;;;9.81;100.00;99756.84;5072424;28;20201;-73
2021/12/12 10:35:14;;;;;;;5.57;3.63;;;;;;;9.63;100.00;99777.31;5072690;28;20305;-73
2021/12/12 10:37:49;;;;;;;4.60;3.00;;;;;;;9.27;100.00;99773.34;5071302;28;20223;-75
2021/12/12 10:40:21;;;;;;;3.17;2.87;;;;;;;9.02;100.00;99781.56;5072201;28;20198;-73
2021/12/12 10:42:52;;;;;;;4.80;2.90;;;;;;;9.03;100.00;99787.56;5072023;28;20195;-73
2021/12/12 10:45:23;;;;;;;9.60;4.33;;;;;;;9.25;100.00;99787.97;5071727;28;20201;-73
2021/12/12 10:47:57;;;;;;;7.77;4.80;;;;;;;9.40;100.00;99802.84;5071688;28;20203;-73
2021/12/12 10:50:35;;;;;;;7.00;3.70;;;;;;;9.16;100.00;99798.16;5071348;28;20210;-74
2021/12/12 10:53:09;;;;;;;5.47;3.57;;;;;;;9.13;100.00;99800.69;5072618;28;20199;-73
2021/12/12 10:55:41;;;;;;;4.30;3.17;;;;;;;9.06;100.00;99808.34;5072561;28;20195;-74
2021/12/12 10:58:21;;;;;;;7.80;3.63;;;;;;;9.17;100.00;99802.47;5070940;28;20223;-74
2021/12/12 11:00:52;;;;;;;3.87;2.47;;;;;;;9.17;100.00;99809.34;5071681;28;20726;-73
2021/12/12 11:03:23;;;;;;;8.27;3.80;;;;;;;9.09;100.00;99806.69;5072457;28;20190;-73
2021/12/12 11:05:56;;;;;;;10.53;3.97;;;;;;;8.96;100.00;99808.16;5072354;28;20202;-73
2021/12/12 11:08:37;;;;;;;4.53;2.87;;;;;;;9.08;100.00;99802.34;5070905;28;20256;-73
2021/12/12 11:11:12;;;;;;;4.07;2.77;;;;;;;9.18;100.00;99775.78;5071784;28;20186;-72
2021/12/12 11:13:44;;;;;;;7.23;4.73;;;;;;;9.38;100.00;99807.97;5071970;28;20198;-73
2021/12/12 11:16:16;;;;;;;7.90;2.57;;;;;;;9.30;100.00;99801.84;5071471;28;20207;-73
2021/12/12 11:18:48;;;;;;;9.67;4.13;;;;;;;9.10;100.00;99804.94;5071081;28;20235;-73
2021/12/12 11:21:22;;;;;;;8.53;4.27;;;;;;;9.16;100.00;99782.66;5087003;28;20214;-74
2021/12/12 11:23:53;;;;;;;7.53;3.97;;;;;;;9.11;100.00;99797.22;5092062;28;20283;-72
2021/12/12 11:26:24;;;;;;;4.97;2.80;;;;;;;8.89;100.00;99795.09;5078022;28;20198;-74
2021/12/12 11:28:55;;;;;;;6.10;4.03;;;;;;;8.78;100.00;99801.81;5072433;28;20233;-73
2021/12/12 11:31:26;;;;;;;5.13;3.43;;;;;;;8.77;100.00;99806.13;5089648;28;20195;-74
2021/12/12 11:33:55;;;;;;;11.83;3.27;;;;;;;8.81;100.00;99796.72;5092057;28;20205;-74
2021/12/12 11:36:28;;;;;;;7.03;3.77;;;;;;;8.89;100.00;99806.31;5089418;28;20230;-73
2021/12/12 11:39:05;;;;;;;7.97;4.20;;;;;;;9.00;100.00;99787.53;5082788;28;20229;-73
2021/12/12 11:41:38;;;;;;;9.60;4.03;;;;;;;8.94;100.00;99798.66;5077388;28;20194;-73
2021/12/12 11:44:14;;;;;;;12.87;4.03;;;;;;;8.80;100.00;99788.09;5091669;28;20287;-73
2021/12/12 11:46:49;;;;;;;4.73;3.13;;;;;;;8.85;100.00;99803.66;5085793;28;20186;-73
2021/12/12 11:49:22;;;;;;;3.97;2.53;;;;;;;8.84;100.00;99807.97;5071060;28;20199;-73
2021/12/12 11:51:55;;;;;;;9.93;4.73;;;;;;;8.68;100.00;99777.53;5089506;28;20194;-73
2021/12/12 11:54:34;;;;;;;15.47;5.93;;;;;;;8.98;100.00;99808.22;5091624;28;20209;-74
2021/12/12 11:57:05;;;;;;;11.67;4.40;;;;;;;8.69;100.00;99809.41;5084259;28;20199;-72